地図

経路データ

SID SEASON NUMBER BASIN SUBBASIN NAME ISO_TIME NATURE LAT LON WMO_WIND WMO_PRES WMO_AGENCY TRACK_TYPE DIST2LAND LANDFALL IFLAG USA_AGENCY USA_ATCF_ID USA_LAT USA_LON USA_RECORD USA_STATUS USA_WIND USA_PRES USA_SSHS USA_R34_NE USA_R34_SE USA_R34_SW USA_R34_NW USA_R50_NE USA_R50_SE USA_R50_SW USA_R50_NW USA_R64_NE USA_R64_SE USA_R64_SW USA_R64_NW USA_POCI USA_ROCI USA_RMW USA_EYE TOKYO_LAT TOKYO_LON TOKYO_GRADE TOKYO_WIND TOKYO_PRES TOKYO_R50_DIR TOKYO_R50_LONG TOKYO_R50_SHORT TOKYO_R30_DIR TOKYO_R30_LONG TOKYO_R30_SHORT TOKYO_LAND CMA_LAT CMA_LON CMA_CAT CMA_WIND CMA_PRES HKO_LAT HKO_LON HKO_CAT HKO_WIND HKO_PRES NEWDELHI_LAT NEWDELHI_LON NEWDELHI_GRADE NEWDELHI_WIND NEWDELHI_PRES NEWDELHI_CI NEWDELHI_DP NEWDELHI_POCI REUNION_LAT REUNION_LON REUNION_TYPE REUNION_WIND REUNION_PRES REUNION_TNUM REUNION_CI REUNION_RMW REUNION_R34_NE REUNION_R34_SE REUNION_R34_SW REUNION_R34_NW REUNION_R50_NE REUNION_R50_SE REUNION_R50_SW REUNION_R50_NW REUNION_R64_NE REUNION_R64_SE REUNION_R64_SW REUNION_R64_NW BOM_LAT BOM_LON BOM_TYPE BOM_WIND BOM_PRES BOM_TNUM BOM_CI BOM_RMW BOM_R34_NE BOM_R34_SE BOM_R34_SW BOM_R34_NW BOM_R50_NE BOM_R50_SE BOM_R50_SW BOM_R50_NW BOM_R64_NE BOM_R64_SE BOM_R64_SW BOM_R64_NW BOM_ROCI BOM_POCI BOM_EYE BOM_POS_METHOD BOM_PRES_METHOD NADI_LAT NADI_LON NADI_CAT NADI_WIND NADI_PRES WELLINGTON_LAT WELLINGTON_LON WELLINGTON_WIND WELLINGTON_PRES DS824_LAT DS824_LON DS824_STAGE DS824_WIND DS824_PRES TD9636_LAT TD9636_LON TD9636_STAGE TD9636_WIND TD9636_PRES TD9635_LAT TD9635_LON TD9635_WIND TD9635_PRES TD9635_ROCI NEUMANN_LAT NEUMANN_LON NEUMANN_CLASS NEUMANN_WIND NEUMANN_PRES MLC_LAT MLC_LON MLC_CLASS MLC_WIND MLC_PRES USA_GUST BOM_GUST BOM_GUST_PER REUNION_GUST REUNION_GUST_PER USA_SEAHGT USA_SEARAD_NE USA_SEARAD_SE USA_SEARAD_SW USA_SEARAD_NW STORM_SPEED STORM_DIR
1971308N11092 1971 145 NI BB NOT_NAMED 1971-11-03 15:00:00 NR 10.5000 92.4000 main 629 602 __________O___ -1 10.5000 92.4000 1 10 322
1971308N11092 1971 145 NI BB NOT_NAMED 1971-11-03 18:00:00 TS 10.8954 92.0798 main 602 576 O________OP___ jtwc_io IO181971 10.9000 92.1000 -1 10.9000 92.1000 TC 25 10.8909 92.0596 1 10 320
1971308N11092 1971 145 NI BB NOT_NAMED 1971-11-03 21:00:00 TS 11.2880 91.7351 main 582 561 P________PP___ IO181971 11.2826 91.7502 -1 11.2826 91.7502 TC 25 11.2952 91.7150 1 11 320
1971308N11092 1971 145 NI BB NOT_NAMED 1971-11-04 00:00:00 TS 11.7108 91.3852 main 561 537 O________OP___ jtwc_io IO181971 11.7000 91.4000 -1 11.7000 91.4000 TC 25 11.7270 91.3630 1 11 323
1971308N11092 1971 145 NI BB NOT_NAMED 1971-11-04 03:00:00 TS 12.1850 91.0333 main 545 527 P________PO___ IO181971 12.1775 91.0499 -1 12.1775 91.0499 TC 25 12.2000 91.0000 1 12 325
1971308N11092 1971 145 NI BB NOT_NAMED 1971-11-04 06:00:00 TS 12.7069 90.6753 main 527 515 O________OP___ jtwc_io IO181971 12.7000 90.7000 -1 12.7000 90.7000 TC 25 12.7207 90.6260 1 13 327
1971308N11092 1971 145 NI BB NOT_NAMED 1971-11-04 09:00:00 TS 13.2600 90.3185 main 517 510 P________PP___ IO181971 13.2575 90.3499 -1 13.2575 90.3499 TC 30 13.2651 90.2556 1 13 328
1971308N11092 1971 145 NI BB NOT_NAMED 1971-11-04 12:00:00 TS 13.8007 89.9691 main 514 513 O________OP___ jtwc_io IO181971 13.8000 90.0000 -1 13.8000 90.0000 TC 35 13.8020 89.9073 1 12 327
1971308N11092 1971 145 NI BB NOT_NAMED 1971-11-04 15:00:00 TS 14.2917 89.6183 main 529 525 P________PO___ IO181971 14.2875 89.6275 -1 14.2875 89.6275 TC 35 14.3000 89.6000 2 11 324
1971308N11092 1971 145 NI BB NOT_NAMED 1971-11-04 18:00:00 TS 14.6857 89.3053 main 545 545 O________OP___ jtwc_io IO181971 14.7000 89.3000 -1 14.7000 89.3000 TC 35 14.6571 89.3159 2 9 322
1971308N11092 1971 145 NI BB NOT_NAMED 1971-11-04 21:00:00 TS 14.9841 89.0681 main 558 558 P________PP___ IO181971 14.9849 89.0623 -1 14.9849 89.0623 TC 35 14.9824 89.0798 2 7 328
1971308N11092 1971 145 NI BB NOT_NAMED 1971-11-05 00:00:00 TS 15.3138 88.9013 main 573 534 O________OP___ jtwc_io IO181971 15.3000 88.9000 -1 15.3000 88.9000 TC 35 15.3415 88.9038 2 9 341
1971308N11092 1971 145 NI BB NOT_NAMED 1971-11-05 03:00:00 TS 15.7833 88.7800 main 534 470 P________PO___ IO181971 15.7750 88.7700 -1 15.7750 88.7700 TC 35 15.8000 88.8000 2 11 350
1971308N11092 1971 145 NI BB NOT_NAMED 1971-11-05 06:00:00 TS 16.4084 88.6958 main 470 398 O________OP___ jtwc_io IO181971 16.4000 88.7000 -1 16.4000 88.7000 TC 35 16.4253 88.6873 2 14 354
1971308N11092 1971 145 NI BB NOT_NAMED 1971-11-05 09:00:00 TS 17.1604 88.6361 main 389 337 P________PP___ IO181971 17.1624 88.6257 -1 17.1624 88.6257 TC 50 17.1564 88.6569 2 16 1
1971308N11092 1971 145 NI BB NOT_NAMED 1971-11-05 12:00:00 TS 17.9864 88.7160 main 329 291 O________OP___ jtwc_io IO181971 18.0000 88.7000 -1 18.0000 88.7000 TC 65 17.9593 88.7479 2 17 12
1971308N11092 1971 145 NI BB NOT_NAMED 1971-11-05 15:00:00 TS 18.7899 89.0019 main 293 225 P________PO___ IO181971 18.7849 89.0028 -1 18.7849 89.0028 TC 65 18.8000 89.0000 4 18 24
1971308N11092 1971 145 NI BB NOT_NAMED 1971-11-05 18:00:00 TS 19.6100 89.4793 main 227 156 O________OP___ jtwc_io IO181971 19.6000 89.5000 -1 19.6000 89.5000 TC 65 19.6300 89.4380 4 20 31
1971308N11092 1971 145 NI BB NOT_NAMED 1971-11-05 21:00:00 TS 20.4953 90.0829 main 145 76 P________PP___ IO181971 20.5000 90.1050 -1 20.5000 90.1050 TC 65 20.4859 90.0387 4 22 35
1971308N11092 1971 145 NI BB NOT_NAMED 1971-11-06 00:00:00 TS 21.3829 90.7818 main 70 30 O________OP___ jtwc_io IO181971 21.4000 90.8000 -1 21.4000 90.8000 TC 65 21.3486 90.7454 4 22 37
1971308N11092 1971 145 NI BB NOT_NAMED 1971-11-06 03:00:00 TS 22.2098 91.4907 main 30 0 P________PO___ IO181971 22.2147 91.4860 -1 22.2147 91.4860 TC 50 22.2000 91.5000 4 21 39
1971308N11092 1971 145 NI BB NOT_NAMED 1971-11-06 06:00:00 TS 23.0107 92.2216 main 0 0 O________OP___ jtwc_io IO181971 23.0000 92.2000 -1 23.0000 92.2000 TC 35 23.0267 92.2541 4 21 40
1971308N11092 1971 145 NI BB NOT_NAMED 1971-11-06 09:00:00 TS 23.8111 92.9668 main 0 0 P________PP___ IO181971 23.7958 92.9404 -1 23.7958 92.9404 TC 30 23.8315 93.0020 4 21 41
1971308N11092 1971 145 NI BB NOT_NAMED 1971-11-06 12:00:00 TS 24.6103 93.7245 main 0 0 O________OP___ jtwc_io IO181971 24.6000 93.7000 -1 24.6000 93.7000 TC 25 24.6206 93.7489 4 21 41
1971308N11092 1971 145 NI BB NOT_NAMED 1971-11-06 15:00:00 NR 25.4000 94.5000 main 0 __________O___ IO181971 -1 TC 25.4000 94.5000 6 21 42

IBTrACS Databaseについて

本データベースは、米国NOAAが公開する1842年以降の世界の熱帯低気圧のベストトラックデータアーカイブInternational Best Track Archive for Climate Stewardship (IBTrACS)を、ウェブで閲覧しやすい形式に変換したものです。

最終更新日:2021-10-25